createdAt,value
2018-11-13T21:57:53.369Z,99299.14
2018-11-13T22:00:40.466Z,99305.44
2018-11-13T22:03:11.379Z,99298.55
2018-11-13T22:05:42.573Z,99309.97
2018-11-13T22:08:13.357Z,99305.27
2018-11-13T22:10:44.113Z,99314.90
2018-11-13T22:13:15.077Z,99312.91
2018-11-13T22:15:46.310Z,99308.36
2018-11-13T22:18:16.960Z,99304.96
2018-11-13T22:20:47.317Z,99311.97
2018-11-13T22:23:18.569Z,99309.38
2018-11-13T22:25:49.953Z,99304.88
2018-11-13T22:28:20.853Z,99318.19
2018-11-13T22:30:51.392Z,99314.87
2018-11-13T22:33:22.486Z,99313.52
2018-11-13T22:35:53.082Z,99326.86
2018-11-13T22:38:23.827Z,99318.42
2018-11-13T22:40:55.360Z,99328.22
2018-11-13T22:43:25.798Z,99328.94
2018-11-13T22:45:57.025Z,99325.82
2018-11-13T22:48:28.037Z,99337.31
2018-11-13T22:50:59.671Z,99328.59
2018-11-13T22:53:30.293Z,99333.08
2018-11-13T22:56:00.981Z,99327.52
2018-11-13T22:58:32.127Z,99335.64
2018-11-13T23:01:03.456Z,99350.53
2018-11-13T23:03:33.843Z,99331.90
2018-11-13T23:08:40.448Z,99359.20
2018-11-13T23:11:14.830Z,99333.48
2018-11-13T23:13:45.447Z,99339.33
2018-11-13T23:16:16.435Z,99350.16
2018-11-13T23:18:47.106Z,99345.03
2018-11-13T23:21:17.981Z,99360.98
2018-11-13T23:26:26.059Z,99366.92
2018-11-13T23:28:56.744Z,99364.08
2018-11-13T23:31:27.649Z,99368.88
2018-11-13T23:33:58.727Z,99367.87
2018-11-13T23:39:10.001Z,99371.33
2018-11-13T23:41:41.241Z,99382.67
2018-11-13T23:44:11.972Z,99379.96
2018-11-13T23:46:46.656Z,99381.83
2018-11-13T23:49:17.244Z,99391.31
2018-11-13T23:51:48.156Z,99379.96
2018-11-13T23:54:18.905Z,99390.79
2018-11-13T23:56:49.587Z,99382.67
2018-11-13T23:59:20.173Z,99396.52
